createdAt,value
2019-04-21T00:00:45.568Z,8.60
2019-04-21T00:03:18.103Z,8.70
2019-04-21T00:06:04.604Z,8.60
2019-04-21T00:08:39.229Z,8.70
2019-04-21T00:11:09.458Z,8.70
2019-04-21T00:13:32.642Z,8.50
2019-04-21T00:15:54.036Z,8.40
2019-04-21T00:18:21.205Z,8.40
2019-04-21T00:20:55.204Z,8.30
2019-04-21T00:23:38.858Z,8.30
2019-04-21T00:26:06.935Z,8.30
2019-04-21T00:28:53.393Z,8.40
2019-04-21T00:31:12.799Z,8.30
2019-04-21T00:33:31.584Z,8.20
2019-04-21T00:36:05.087Z,8.20
2019-04-21T00:39:03.023Z,8.20
2019-04-21T00:41:18.800Z,8.10
2019-04-21T00:43:44.782Z,8.10
2019-04-21T00:46:12.135Z,8.10
2019-04-21T00:48:53.977Z,8.10
2019-04-21T00:51:33.358Z,8.10
2019-04-21T00:54:05.766Z,8.00
2019-04-21T00:56:27.705Z,8.10
2019-04-21T00:59:05.746Z,8.10
2019-04-21T01:01:31.408Z,8.20
2019-04-21T01:04:02.798Z,8.30
2019-04-21T01:06:35.149Z,8.30
2019-04-21T01:09:02.687Z,8.40
2019-04-21T01:11:33.251Z,8.50
2019-04-21T01:14:16.645Z,8.50
2019-04-21T01:16:39.792Z,8.60
2019-04-21T01:19:05.024Z,8.60
2019-04-21T01:21:18.765Z,8.60
2019-04-21T01:23:48.649Z,8.70
2019-04-21T01:26:32.518Z,8.80
2019-04-21T01:29:06.737Z,8.90
2019-04-21T01:31:37.713Z,8.90
2019-04-21T01:34:14.921Z,9.10
2019-04-21T01:36:41.760Z,9.10
2019-04-21T01:39:35.188Z,9.10
2019-04-21T01:41:52.596Z,9.20
2019-04-21T01:44:26.664Z,9.20
2019-04-21T01:46:45.807Z,9.30
2019-04-21T01:49:11.521Z,9.30
2019-04-21T01:52:19.963Z,9.30
2019-04-21T01:54:55.854Z,9.40
2019-04-21T01:57:37.520Z,9.30
2019-04-21T02:00:04.441Z,9.20
2019-04-21T02:02:49.255Z,9.10
2019-04-21T02:05:29.999Z,9.10
2019-04-21T02:07:50.825Z,9.00
2019-04-21T02:10:27.005Z,8.90
2019-04-21T02:12:51.260Z,8.80
2019-04-21T02:15:23.711Z,8.70
2019-04-21T02:17:53.682Z,8.60
2019-04-21T02:20:18.295Z,8.60
2019-04-21T02:23:12.923Z,8.50
2019-04-21T02:25:32.160Z,8.30
2019-04-21T02:28:03.731Z,8.20
2019-04-21T02:30:52.096Z,8.00
2019-04-21T02:33:18.497Z,8.00
2019-04-21T02:35:53.534Z,8.00
2019-04-21T02:38:20.997Z,8.10
2019-04-21T02:43:18.639Z,8.00
2019-04-21T02:45:47.588Z,7.90
2019-04-21T02:48:22.683Z,7.90
2019-04-21T02:50:47.191Z,7.80
2019-04-21T02:53:27.054Z,7.80
2019-04-21T02:55:58.714Z,7.80
2019-04-21T03:01:05.229Z,7.70
2019-04-21T03:08:54.393Z,7.90
2019-04-21T03:11:12.326Z,8.00
2019-04-21T03:14:00.176Z,8.20
2019-04-21T03:16:22.546Z,8.30
2019-04-21T03:18:54.648Z,8.30
2019-04-21T03:21:26.304Z,8.20
2019-04-21T03:23:53.630Z,8.00
2019-04-21T03:26:27.282Z,7.80
2019-04-21T03:28:56.701Z,7.70
2019-04-21T03:32:04.434Z,7.60
2019-04-21T03:34:29.138Z,7.40
2019-04-21T03:36:52.779Z,7.20
2019-04-21T03:38:57.089Z,7.10
2019-04-21T03:41:34.868Z,7.10
2019-04-21T03:43:58.871Z,7.00
2019-04-21T03:46:35.795Z,7.00
2019-04-21T03:54:04.419Z,6.80
2019-04-21T04:01:57.789Z,6.60
2019-04-21T04:04:41.340Z,6.60
2019-04-21T04:07:36.751Z,6.50
2019-04-21T04:10:13.882Z,6.50
2019-04-21T04:15:06.198Z,6.40
2019-04-21T04:17:32.867Z,6.40
2019-04-21T04:20:04.317Z,6.30
2019-04-21T04:22:38.002Z,6.30
2019-04-21T04:25:17.475Z,6.20
2019-04-21T04:27:55.729Z,6.30
2019-04-21T04:30:12.511Z,6.30
2019-04-21T04:32:42.486Z,6.30
2019-04-21T04:35:10.783Z,6.30
2019-04-21T04:37:44.496Z,6.30
2019-04-21T04:45:38.450Z,6.40
2019-04-21T04:48:11.854Z,6.50
2019-04-21T04:53:25.059Z,6.50
2019-04-21T04:58:19.190Z,6.50
2019-04-21T05:00:58.141Z,6.40
2019-04-21T05:09:02.979Z,6.70
2019-04-21T05:14:03.045Z,6.90
2019-04-21T05:23:52.558Z,7.10
2019-04-21T05:26:15.019Z,7.20
2019-04-21T05:28:44.915Z,7.40
2019-04-21T05:31:35.053Z,7.40
2019-04-21T05:34:04.778Z,7.60
2019-04-21T05:36:53.857Z,7.60
2019-04-21T05:39:18.813Z,7.80
2019-04-21T05:41:42.875Z,7.90
2019-04-21T05:44:35.462Z,8.00
2019-04-21T05:47:07.674Z,8.10
2019-04-21T05:49:29.769Z,8.20
2019-04-21T05:52:00.331Z,8.20
2019-04-21T05:57:11.960Z,8.50
2019-04-21T05:59:40.467Z,8.60
2019-04-21T06:02:18.837Z,8.80
2019-04-21T06:05:10.463Z,9.00
2019-04-21T06:07:18.929Z,9.20
2019-04-21T06:09:52.570Z,9.40
2019-04-21T06:12:18.244Z,9.70
2019-04-21T06:15:14.305Z,9.90
2019-04-21T06:20:02.886Z,10.40
2019-04-21T06:22:28.898Z,10.40
2019-04-21T06:25:31.571Z,10.60
2019-04-21T06:27:32.503Z,10.70
2019-04-21T06:30:03.605Z,10.90
2019-04-21T06:32:46.725Z,11.10
2019-04-21T06:35:29.596Z,11.30
2019-04-21T06:38:00.118Z,11.50
2019-04-21T06:40:37.317Z,11.70
2019-04-21T06:43:16.239Z,11.80
2019-04-21T06:45:37.942Z,12.00
2019-04-21T06:48:08.809Z,12.10
2019-04-21T06:50:41.446Z,12.20
2019-04-21T06:53:04.040Z,12.30
2019-04-21T06:55:32.036Z,12.50
2019-04-21T06:58:05.079Z,12.60
2019-04-21T07:00:37.294Z,12.70
2019-04-21T07:03:20.642Z,12.80
2019-04-21T07:05:48.761Z,13.00
2019-04-21T07:10:44.815Z,13.20
2019-04-21T07:13:15.314Z,13.30
2019-04-21T07:15:46.327Z,13.50
2019-04-21T07:18:19.460Z,13.60
2019-04-21T07:20:49.066Z,13.80
2019-04-21T07:23:25.291Z,13.90
2019-04-21T07:25:51.391Z,14.00
2019-04-21T07:28:25.314Z,14.10
2019-04-21T07:30:59.496Z,14.30
2019-04-21T07:33:49.595Z,14.40
2019-04-21T07:35:59.404Z,14.50
2019-04-21T07:38:21.195Z,14.60
2019-04-21T07:40:45.779Z,14.70
2019-04-21T07:43:20.669Z,14.90
2019-04-21T07:45:52.787Z,15.00
2019-04-21T07:48:36.133Z,15.10
2019-04-21T07:51:17.391Z,15.30
2019-04-21T07:53:55.929Z,15.50
2019-04-21T07:56:17.893Z,15.70
2019-04-21T07:59:05.540Z,15.90
2019-04-21T08:01:37.322Z,16.10
2019-04-21T08:04:08.470Z,16.20
2019-04-21T08:09:10.337Z,16.50
2019-04-21T08:11:32.655Z,16.70
2019-04-21T08:14:10.636Z,16.80
2019-04-21T08:16:43.134Z,17.00
2019-04-21T08:19:12.695Z,17.10
2019-04-21T08:21:44.650Z,17.30
2019-04-21T08:24:16.211Z,17.40
2019-04-21T08:26:41.498Z,17.60
2019-04-21T08:29:30.652Z,17.80
2019-04-21T08:34:24.236Z,18.10
2019-04-21T08:36:44.771Z,18.20
2019-04-21T08:39:19.571Z,18.30
2019-04-21T08:41:50.403Z,18.40
2019-04-21T08:44:31.559Z,18.50
2019-04-21T08:46:58.786Z,18.60
2019-04-21T08:49:26.869Z,18.80
2019-04-21T08:52:03.358Z,18.90
2019-04-21T08:54:26.462Z,19.10
2019-04-21T08:57:15.382Z,19.20
2019-04-21T08:59:54.767Z,19.30
2019-04-21T09:02:47.493Z,19.50
2019-04-21T09:05:13.495Z,19.70
2019-04-21T09:07:45.939Z,19.80
2019-04-21T09:10:14.383Z,20.00
2019-04-21T09:12:43.276Z,20.10
2019-04-21T09:15:13.878Z,20.20
2019-04-21T09:17:39.658Z,20.40
2019-04-21T09:20:17.005Z,20.50
2019-04-21T09:22:52.562Z,20.70
2019-04-21T09:25:23.283Z,20.80
2019-04-21T09:27:48.530Z,21.00
2019-04-21T09:30:06.550Z,21.10
2019-04-21T09:32:37.086Z,21.20
2019-04-21T09:35:10.708Z,21.30
2019-04-21T09:37:47.621Z,21.50
2019-04-21T09:40:11.793Z,21.60
2019-04-21T09:42:50.376Z,21.80
2019-04-21T09:45:12.523Z,22.00
2019-04-21T09:47:52.518Z,22.40
2019-04-21T09:50:15.054Z,22.90
2019-04-21T09:52:49.752Z,23.40
2019-04-21T09:55:20.808Z,23.80
2019-04-21T09:57:53.614Z,23.90
2019-04-21T10:00:24.279Z,23.80
2019-04-21T10:02:56.769Z,23.70
2019-04-21T10:05:21.421Z,23.50
2019-04-21T10:07:53.028Z,23.50
2019-04-21T10:10:23.094Z,23.50
2019-04-21T10:12:53.893Z,23.50
2019-04-21T10:15:25.018Z,23.60
2019-04-21T10:17:56.241Z,23.60
2019-04-21T10:20:26.481Z,23.70
2019-04-21T10:22:57.199Z,23.80
2019-04-21T10:25:26.867Z,23.80
2019-04-21T10:27:57.054Z,23.80
2019-04-21T10:30:26.694Z,24.00
2019-04-21T10:32:56.514Z,24.00
2019-04-21T10:35:26.290Z,24.10
2019-04-21T10:38:10.480Z,24.30
2019-04-21T10:40:28.327Z,24.40
2019-04-21T10:42:58.352Z,24.40
2019-04-21T10:45:28.675Z,24.50
2019-04-21T10:47:58.833Z,24.40
2019-04-21T10:50:28.751Z,24.50
2019-04-21T10:53:00.891Z,24.50
2019-04-21T10:55:51.290Z,24.70
2019-04-21T10:58:11.023Z,24.90
2019-04-21T11:00:46.163Z,25.00
2019-04-21T11:03:35.128Z,25.20
2019-04-21T11:06:08.750Z,25.60
2019-04-21T11:08:43.353Z,26.10
2019-04-21T11:11:10.056Z,26.80
2019-04-21T11:13:40.825Z,27.60
2019-04-21T11:16:10.968Z,28.30
2019-04-21T11:18:41.949Z,28.90
2019-04-21T11:21:11.596Z,29.60
2019-04-21T11:23:40.969Z,30.40
2019-04-21T11:26:11.912Z,30.40
2019-04-21T11:28:42.885Z,30.40
2019-04-21T11:31:13.290Z,30.60
2019-04-21T11:33:43.107Z,30.80
2019-04-21T11:36:13.324Z,31.30
2019-04-21T11:39:02.105Z,31.40
2019-04-21T11:41:16.065Z,32.50
2019-04-21T11:43:45.473Z,32.80
2019-04-21T11:46:16.144Z,33.20
2019-04-21T11:48:46.169Z,34.10
2019-04-21T11:51:15.657Z,33.90
2019-04-21T11:53:44.991Z,33.60
2019-04-21T11:56:14.702Z,33.70
2019-04-21T11:58:45.811Z,34.20
2019-04-21T12:01:15.863Z,34.60
2019-04-21T12:03:45.492Z,34.00
2019-04-21T12:06:15.474Z,34.00
2019-04-21T12:08:49.442Z,35.00
2019-04-21T12:11:16.033Z,35.40
2019-04-21T12:13:45.924Z,35.30
2019-04-21T12:16:15.473Z,34.80
2019-04-21T12:18:47.155Z,35.00
2019-04-21T12:21:16.660Z,34.90
2019-04-21T12:23:45.990Z,35.00
2019-04-21T12:26:15.920Z,35.10
2019-04-21T12:28:45.968Z,33.80
2019-04-21T12:31:29.784Z,33.40
2019-04-21T12:34:03.569Z,33.70
2019-04-21T12:36:32.240Z,34.00
2019-04-21T12:39:04.761Z,34.50
2019-04-21T12:41:33.197Z,34.90
2019-04-21T12:44:02.643Z,34.70
2019-04-21T12:46:32.202Z,35.40
2019-04-21T12:49:02.195Z,35.80
2019-04-21T12:51:31.766Z,35.50
2019-04-21T12:54:01.624Z,35.50
2019-04-21T12:56:31.641Z,35.70
2019-04-21T12:59:02.173Z,35.90
2019-04-21T13:01:32.695Z,36.70
2019-04-21T13:04:02.298Z,37.00
2019-04-21T13:06:31.800Z,37.00
2019-04-21T13:09:05.299Z,36.50
2019-04-21T13:11:33.193Z,36.70
2019-04-21T13:14:03.970Z,36.30
2019-04-21T13:16:33.728Z,36.30
2019-04-21T13:19:03.299Z,36.60
2019-04-21T13:21:34.057Z,36.30
2019-04-21T13:24:04.928Z,36.20
2019-04-21T13:26:43.067Z,36.10
2019-04-21T13:29:06.032Z,36.20
2019-04-21T13:31:36.226Z,36.50
2019-04-21T13:34:26.218Z,36.60
2019-04-21T13:36:57.272Z,36.90
2019-04-21T13:39:55.491Z,36.30
2019-04-21T13:42:16.534Z,36.30
2019-04-21T13:44:39.049Z,36.50
2019-04-21T13:47:08.646Z,36.70
2019-04-21T13:49:39.123Z,36.90
2019-04-21T13:52:10.962Z,36.40
2019-04-21T13:54:41.415Z,36.10
2019-04-21T13:57:12.406Z,35.70
2019-04-21T13:59:42.280Z,35.90
2019-04-21T14:02:12.960Z,36.10
2019-04-21T14:04:43.270Z,36.70
2019-04-21T14:07:14.227Z,37.00
2019-04-21T14:09:54.539Z,37.40
2019-04-21T14:12:14.872Z,36.90
2019-04-21T14:14:44.236Z,36.60
2019-04-21T14:17:14.921Z,36.20
2019-04-21T14:19:45.513Z,36.80
2019-04-21T14:22:18.018Z,37.10
2019-04-21T14:24:47.976Z,37.20
2019-04-21T14:27:18.547Z,37.00
2019-04-21T14:29:49.264Z,36.50
2019-04-21T14:32:20.144Z,36.10
2019-04-21T14:34:53.451Z,36.10
2019-04-21T14:37:22.610Z,36.10
2019-04-21T14:39:59.616Z,35.70
2019-04-21T14:42:24.279Z,35.50
2019-04-21T14:44:54.702Z,35.60
2019-04-21T14:47:38.027Z,36.30
2019-04-21T14:50:28.180Z,36.50
2019-04-21T14:53:17.936Z,36.70
2019-04-21T14:55:49.038Z,36.70
2019-04-21T14:58:19.107Z,36.50
2019-04-21T15:01:01.985Z,36.30
2019-04-21T15:03:34.126Z,36.00
2019-04-21T15:06:05.410Z,35.70
2019-04-21T15:08:35.306Z,35.40
2019-04-21T15:11:05.318Z,34.70
2019-04-21T15:13:35.514Z,34.80
2019-04-21T15:16:06.893Z,35.20
2019-04-21T15:18:36.862Z,35.30
2019-04-21T15:21:07.637Z,35.20
2019-04-21T15:23:38.251Z,35.20
2019-04-21T15:26:08.309Z,34.60
2019-04-21T15:28:40.626Z,34.70
2019-04-21T15:31:13.900Z,34.80
2019-04-21T15:33:41.284Z,35.30
2019-04-21T15:36:11.252Z,35.30
2019-04-21T15:38:40.797Z,34.80
2019-04-21T15:41:10.868Z,34.00
2019-04-21T15:43:40.705Z,33.10
2019-04-21T15:46:10.951Z,33.60
2019-04-21T15:48:41.190Z,33.70
2019-04-21T15:51:11.137Z,33.90
2019-04-21T15:53:43.715Z,34.10
2019-04-21T15:56:15.224Z,34.30
2019-04-21T15:58:50.456Z,34.30
2019-04-21T16:01:30.605Z,34.50
2019-04-21T16:04:02.497Z,34.70
2019-04-21T16:06:32.057Z,34.60
2019-04-21T16:09:03.251Z,33.90
2019-04-21T16:11:33.642Z,33.50
2019-04-21T16:14:03.757Z,33.50
2019-04-21T16:16:34.586Z,33.60
2019-04-21T16:19:05.976Z,33.50
2019-04-21T16:21:40.104Z,33.40
2019-04-21T16:24:06.838Z,33.10
2019-04-21T16:26:36.325Z,32.60
2019-04-21T16:29:07.008Z,32.50
2019-04-21T16:31:36.569Z,32.00
2019-04-21T16:34:07.146Z,31.70
2019-04-21T16:36:37.901Z,31.80
2019-04-21T16:39:09.510Z,31.50
2019-04-21T16:41:40.394Z,31.20
2019-04-21T16:44:11.180Z,30.70
2019-04-21T16:46:41.325Z,30.20
2019-04-21T16:49:11.841Z,30.00
2019-04-21T16:51:42.283Z,30.30
2019-04-21T16:54:16.266Z,30.30
2019-04-21T16:56:57.536Z,30.30
2019-04-21T16:59:28.755Z,30.10
2019-04-21T17:01:58.764Z,30.40
2019-04-21T17:04:28.717Z,30.60
2019-04-21T17:06:58.920Z,30.60
2019-04-21T17:09:28.584Z,30.40
2019-04-21T17:12:01.844Z,30.10
2019-04-21T17:14:45.302Z,29.60
2019-04-21T17:17:25.419Z,29.40
2019-04-21T17:19:37.032Z,29.20
2019-04-21T17:22:03.817Z,29.00
2019-04-21T17:24:34.726Z,28.90
2019-04-21T17:27:05.102Z,28.60
2019-04-21T17:29:34.689Z,28.60
2019-04-21T17:32:06.494Z,28.40
2019-04-21T17:34:36.109Z,28.30
2019-04-21T17:37:06.313Z,28.00
2019-04-21T17:39:36.633Z,27.50
2019-04-21T17:42:22.643Z,27.20
2019-04-21T17:44:37.400Z,26.90
2019-04-21T17:47:21.833Z,26.50
2019-04-21T17:49:39.290Z,25.70
2019-04-21T17:52:19.504Z,25.10
2019-04-21T17:54:51.153Z,24.50
2019-04-21T17:57:38.872Z,24.00
2019-04-21T18:00:13.931Z,23.60
2019-04-21T18:02:45.988Z,23.30
2019-04-21T18:05:15.204Z,22.90
2019-04-21T18:07:41.930Z,22.60
2019-04-21T18:10:17.530Z,22.30
2019-04-21T18:12:42.483Z,22.00
2019-04-21T18:15:16.690Z,21.70
2019-04-21T18:17:28.888Z,21.60
2019-04-21T18:19:59.679Z,21.40
2019-04-21T18:22:41.717Z,21.20
2019-04-21T18:25:25.235Z,21.00
2019-04-21T18:27:42.757Z,20.80
2019-04-21T18:30:42.443Z,20.60
2019-04-21T18:33:23.461Z,20.50
2019-04-21T18:36:00.162Z,20.30
2019-04-21T18:39:06.965Z,20.20
2019-04-21T18:41:21.789Z,20.00
2019-04-21T18:47:05.190Z,19.70
2019-04-21T18:49:15.333Z,19.50
2019-04-21T18:54:53.881Z,19.20
2019-04-21T18:57:17.498Z,18.90
2019-04-21T18:59:41.407Z,18.80
2019-04-21T19:02:13.471Z,18.60
2019-04-21T19:04:40.535Z,18.50
2019-04-21T19:07:20.134Z,18.40
2019-04-21T19:12:49.104Z,18.00
2019-04-21T19:14:58.085Z,17.80
2019-04-21T19:17:58.032Z,17.60
2019-04-21T19:20:15.899Z,17.40
2019-04-21T19:22:40.091Z,17.10
2019-04-21T19:25:05.429Z,17.00
2019-04-21T19:27:36.540Z,16.60
2019-04-21T19:30:12.154Z,16.40
2019-04-21T19:32:37.474Z,16.30
2019-04-21T19:34:57.210Z,16.10
2019-04-21T19:37:26.995Z,15.90
2019-04-21T19:40:07.885Z,15.80
2019-04-21T19:42:37.023Z,15.60
2019-04-21T19:45:14.947Z,15.50
2019-04-21T19:47:49.511Z,15.30
2019-04-21T19:50:16.858Z,15.20
2019-04-21T19:52:39.914Z,15.20
2019-04-21T19:55:02.569Z,15.10
2019-04-21T19:57:32.201Z,15.00
2019-04-21T20:00:04.158Z,15.00
2019-04-21T20:02:34.386Z,14.90
2019-04-21T20:05:11.596Z,14.70
2019-04-21T20:07:56.291Z,14.60
2019-04-21T20:10:35.511Z,14.40
2019-04-21T20:13:03.800Z,14.30
2019-04-21T20:15:36.118Z,14.30
2019-04-21T20:18:00.164Z,14.10
2019-04-21T20:20:15.296Z,14.00
2019-04-21T20:22:48.511Z,13.90
2019-04-21T20:25:19.452Z,13.80
2019-04-21T20:27:56.788Z,13.80
2019-04-21T20:30:40.525Z,13.60
2019-04-21T20:33:19.773Z,13.60
2019-04-21T20:35:46.897Z,13.50
2019-04-21T20:38:07.268Z,13.40
2019-04-21T20:40:36.241Z,13.30
2019-04-21T20:43:17.702Z,13.20
2019-04-21T20:48:19.905Z,13.10
2019-04-21T20:51:01.836Z,13.20
2019-04-21T20:53:33.041Z,13.10
2019-04-21T20:55:57.681Z,13.00
2019-04-21T20:58:34.245Z,13.00
2019-04-21T21:01:20.801Z,13.00
2019-04-21T21:03:39.097Z,13.00
2019-04-21T21:06:03.780Z,13.00
2019-04-21T21:08:40.146Z,12.90
2019-04-21T21:11:09.554Z,12.90
2019-04-21T21:13:45.761Z,12.90
2019-04-21T21:21:15.183Z,12.70
2019-04-21T21:23:51.292Z,12.70
2019-04-21T21:26:23.324Z,12.60
2019-04-21T21:28:46.087Z,12.60
2019-04-21T21:31:17.719Z,12.60
2019-04-21T21:34:03.464Z,12.40
2019-04-21T21:36:24.060Z,12.30
2019-04-21T21:38:55.912Z,12.20
2019-04-21T21:41:17.918Z,12.10
2019-04-21T21:43:39.530Z,11.90
2019-04-21T21:46:26.741Z,11.80
2019-04-21T21:48:54.062Z,11.70
2019-04-21T21:51:18.678Z,11.60
2019-04-21T21:53:43.928Z,11.60
2019-04-21T21:56:14.551Z,11.50
2019-04-21T21:58:46.166Z,11.40
2019-04-21T22:01:20.783Z,11.40
2019-04-21T22:03:53.949Z,11.40
2019-04-21T22:06:23.045Z,11.30
2019-04-21T22:08:50.454Z,11.20
2019-04-21T22:11:20.179Z,11.20
2019-04-21T22:13:55.705Z,11.10
2019-04-21T22:16:21.842Z,11.10
2019-04-21T22:19:27.320Z,11.10
2019-04-21T22:21:53.465Z,11.00
2019-04-21T22:24:23.769Z,11.00
2019-04-21T22:26:40.994Z,11.00
2019-04-21T22:29:11.739Z,11.00
2019-04-21T22:31:42.988Z,11.10
2019-04-21T22:34:14.222Z,11.00
2019-04-21T22:36:53.815Z,11.10
2019-04-21T22:39:34.936Z,11.00
2019-04-21T22:41:48.857Z,11.00
2019-04-21T22:44:18.681Z,11.00
2019-04-21T22:46:58.639Z,10.90
2019-04-21T22:49:22.018Z,10.90
2019-04-21T22:51:52.157Z,10.80
2019-04-21T22:54:29.621Z,10.90
2019-04-21T22:57:02.595Z,10.90
2019-04-21T22:59:26.401Z,10.90
2019-04-21T23:01:55.826Z,10.90
2019-04-21T23:04:35.576Z,10.90
2019-04-21T23:07:04.137Z,10.90
2019-04-21T23:09:29.004Z,10.80
2019-04-21T23:12:00.995Z,10.90
2019-04-21T23:14:33.896Z,10.90
2019-04-21T23:17:26.711Z,10.90
2019-04-21T23:19:42.205Z,10.80
2019-04-21T23:22:21.742Z,10.80
2019-04-21T23:24:54.439Z,10.70
2019-04-21T23:27:15.394Z,10.70
2019-04-21T23:29:58.881Z,10.70
2019-04-21T23:32:22.324Z,10.60
2019-04-21T23:34:40.289Z,10.60
2019-04-21T23:37:14.975Z,10.60
2019-04-21T23:39:41.575Z,10.50
2019-04-21T23:42:11.342Z,10.50
2019-04-21T23:44:47.035Z,10.40
2019-04-21T23:47:19.990Z,10.40
2019-04-21T23:49:51.069Z,10.20
2019-04-21T23:52:15.985Z,10.10
2019-04-21T23:54:45.329Z,10.10
2019-04-21T23:57:23.198Z,10.00
2019-04-21T23:59:51.330Z,10.00
